sensor_id;sensor_type;location;lat;lon;timestamp;temperature;humidity
13123;DHT22;6627;50.920;12.050;2023-06-26T07:07:17;24.20;99.90
13123;DHT22;6627;50.920;12.050;2023-06-26T07:09:45;24.10;99.90
13123;DHT22;6627;50.920;12.050;2023-06-26T07:12:16;24.40;99.90
13123;DHT22;6627;50.920;12.050;2023-06-26T07:14:43;24.40;99.90
13123;DHT22;6627;50.920;12.050;2023-06-26T07:17:10;24.50;99.90
13123;DHT22;6627;50.920;12.050;2023-06-26T07:19:38;24.80;99.90
13123;DHT22;6627;50.920;12.050;2023-06-26T07:22:26;24.90;99.90
13123;DHT22;6627;50.920;12.050;2023-06-26T07:24:55;25.10;99.90
13123;DHT22;6627;50.920;12.050;2023-06-26T07:27:22;25.40;99.90
13123;DHT22;6627;50.920;12.050;2023-06-26T07:29:49;25.50;99.90
13123;DHT22;6627;50.920;12.050;2023-06-26T07:32:17;25.60;99.90
13123;DHT22;6627;50.920;12.050;2023-06-26T09:12:06;29.90;99.90
13123;DHT22;6627;50.920;12.050;2023-06-26T09:14:36;29.80;99.90
13123;DHT22;6627;50.920;12.050;2023-06-26T09:17:03;29.80;99.90
13123;DHT22;6627;50.920;12.050;2023-06-26T09:19:32;29.90;99.90
13123;DHT22;6627;50.920;12.050;2023-06-26T09:22:11;30.00;99.90
13123;DHT22;6627;50.920;12.050;2023-06-26T09:24:41;30.20;99.90
13123;DHT22;6627;50.920;12.050;2023-06-26T09:47:03;30.20;94.90
13123;DHT22;6627;50.920;12.050;2023-06-26T09:49:31;30.20;94.80
13123;DHT22;6627;50.920;12.050;2023-06-26T09:52:00;30.20;93.30
13123;DHT22;6627;50.920;12.050;2023-06-26T09:54:29;30.10;93.00
13123;DHT22;6627;50.920;12.050;2023-06-26T09:57:07;30.10;92.50
13123;DHT22;6627;50.920;12.050;2023-06-26T09:59:35;30.30;93.50
13123;DHT22;6627;50.920;12.050;2023-06-26T10:02:03;30.40;94.70
13123;DHT22;6627;50.920;12.050;2023-06-26T10:04:31;30.10;91.80
13123;DHT22;6627;50.920;12.050;2023-06-26T10:07:01;30.10;92.50
13123;DHT22;6627;50.920;12.050;2023-06-26T10:09:33;30.10;93.90
13123;DHT22;6627;50.920;12.050;2023-06-26T10:12:03;30.20;93.70
13123;DHT22;6627;50.920;12.050;2023-06-26T10:14:40;30.10;92.00
13123;DHT22;6627;50.920;12.050;2023-06-26T10:17:10;30.10;92.20
13123;DHT22;6627;50.920;12.050;2023-06-26T10:19:44;30.40;90.90
13123;DHT22;6627;50.920;12.050;2023-06-26T10:22:15;30.30;91.50
13123;DHT22;6627;50.920;12.050;2023-06-26T10:24:45;30.60;91.90
13123;DHT22;6627;50.920;12.050;2023-06-26T10:27:17;30.70;93.20
13123;DHT22;6627;50.920;12.050;2023-06-26T10:29:49;30.80;92.30
13123;DHT22;6627;50.920;12.050;2023-06-26T10:32:27;30.80;92.80
13123;DHT22;6627;50.920;12.050;2023-06-26T10:34:56;30.90;92.80
13123;DHT22;6627;50.920;12.050;2023-06-26T10:37:43;30.70;88.80
13123;DHT22;6627;50.920;12.050;2023-06-26T10:40:12;30.60;89.10
13123;DHT22;6627;50.920;12.050;2023-06-26T10:42:40;30.40;90.10
13123;DHT22;6627;50.920;12.050;2023-06-26T10:45:09;30.40;91.20
13123;DHT22;6627;50.920;12.050;2023-06-26T10:47:40;30.50;99.90
13123;DHT22;6627;50.920;12.050;2023-06-26T10:50:18;30.60;88.40
13123;DHT22;6627;50.920;12.050;2023-06-26T10:55:36;30.90;88.80
13123;DHT22;6627;50.920;12.050;2023-06-26T11:00:31;30.80;83.50
13123;DHT22;6627;50.920;12.050;2023-06-26T11:03:00;30.90;88.40
13123;DHT22;6627;50.920;12.050;2023-06-26T11:05:28;31.10;85.40
13123;DHT22;6627;50.920;12.050;2023-06-26T11:08:06;31.30;90.80
13123;DHT22;6627;50.920;12.050;2023-06-26T11:10:48;31.40;92.10
13123;DHT22;6627;50.920;12.050;2023-06-26T11:13:21;31.50;91.20
13123;DHT22;6627;50.920;12.050;2023-06-26T11:15:49;31.70;90.90
13123;DHT22;6627;50.920;12.050;2023-06-26T11:18:17;31.70;91.50
13123;DHT22;6627;50.920;12.050;2023-06-26T11:20:46;31.50;91.10
13123;DHT22;6627;50.920;12.050;2023-06-26T11:23:21;31.80;93.50
13123;DHT22;6627;50.920;12.050;2023-06-26T11:25:50;31.70;93.70
13123;DHT22;6627;50.920;12.050;2023-06-26T11:28:17;31.10;96.20
13123;DHT22;6627;50.920;12.050;2023-06-26T11:30:45;30.50;95.40
13123;DHT22;6627;50.920;12.050;2023-06-26T11:33:12;30.70;98.20
13123;DHT22;6627;50.920;12.050;2023-06-26T11:35:39;30.70;95.00
13123;DHT22;6627;50.920;12.050;2023-06-26T11:38:06;30.80;98.10
13123;DHT22;6627;50.920;12.050;2023-06-26T11:40:37;30.80;95.10
13123;DHT22;6627;50.920;12.050;2023-06-26T11:43:04;31.20;94.80
13123;DHT22;6627;50.920;12.050;2023-06-26T11:48:01;31.30;94.60
13123;DHT22;6627;50.920;12.050;2023-06-26T11:50:28;31.40;96.10
13123;DHT22;6627;50.920;12.050;2023-06-26T11:52:57;31.40;91.80
13123;DHT22;6627;50.920;12.050;2023-06-26T11:57:59;31.20;93.10
13123;DHT22;6627;50.920;12.050;2023-06-26T12:00:26;31.20;92.40
13123;DHT22;6627;50.920;12.050;2023-06-26T12:02:54;31.20;94.60
13123;DHT22;6627;50.920;12.050;2023-06-26T12:05:21;31.40;99.60
13123;DHT22;6627;50.920;12.050;2023-06-26T12:07:49;31.40;92.10
13123;DHT22;6627;50.920;12.050;2023-06-26T12:10:18;31.30;96.30
13123;DHT22;6627;50.920;12.050;2023-06-26T12:12:46;31.00;96.60
13123;DHT22;6627;50.920;12.050;2023-06-26T12:15:16;31.10;97.90
13123;DHT22;6627;50.920;12.050;2023-06-26T12:17:43;31.30;94.30
13123;DHT22;6627;50.920;12.050;2023-06-26T12:20:18;31.00;97.10
13123;DHT22;6627;50.920;12.050;2023-06-26T12:22:46;31.00;96.50
13123;DHT22;6627;50.920;12.050;2023-06-26T12:25:14;31.10;92.70
13123;DHT22;6627;50.920;12.050;2023-06-26T12:27:44;30.70;94.50
13123;DHT22;6627;50.920;12.050;2023-06-26T12:30:12;30.90;93.00
13123;DHT22;6627;50.920;12.050;2023-06-26T12:32:44;31.20;95.00
13123;DHT22;6627;50.920;12.050;2023-06-26T12:35:13;31.30;96.40
13123;DHT22;6627;50.920;12.050;2023-06-26T12:37:42;31.50;90.30
13123;DHT22;6627;50.920;12.050;2023-06-26T12:40:18;31.50;87.70
13123;DHT22;6627;50.920;12.050;2023-06-26T12:42:47;31.50;86.10
13123;DHT22;6627;50.920;12.050;2023-06-26T12:45:15;31.60;86.70
13123;DHT22;6627;50.920;12.050;2023-06-26T12:47:44;31.50;86.30
13123;DHT22;6627;50.920;12.050;2023-06-26T12:50:12;31.60;85.30
13123;DHT22;6627;50.920;12.050;2023-06-26T12:52:40;31.70;81.60
13123;DHT22;6627;50.920;12.050;2023-06-26T12:55:08;31.80;87.60
13123;DHT22;6627;50.920;12.050;2023-06-26T12:57:36;31.80;92.40
13123;DHT22;6627;50.920;12.050;2023-06-26T13:00:04;31.90;91.40
13123;DHT22;6627;50.920;12.050;2023-06-26T13:02:32;32.00;93.20
13123;DHT22;6627;50.920;12.050;2023-06-26T13:05:01;32.00;87.90
13123;DHT22;6627;50.920;12.050;2023-06-26T13:07:29;32.00;89.50
13123;DHT22;6627;50.920;12.050;2023-06-26T13:09:56;31.70;93.90
13123;DHT22;6627;50.920;12.050;2023-06-26T13:12:23;31.70;94.10
13123;DHT22;6627;50.920;12.050;2023-06-26T13:14:51;31.70;90.20
13123;DHT22;6627;50.920;12.050;2023-06-26T13:17:18;31.50;95.30
13123;DHT22;6627;50.920;12.050;2023-06-26T13:19:45;31.50;88.40
13123;DHT22;6627;50.920;12.050;2023-06-26T13:22:14;31.40;85.20
13123;DHT22;6627;50.920;12.050;2023-06-26T13:24:41;31.30;89.10
13123;DHT22;6627;50.920;12.050;2023-06-26T13:27:08;31.30;95.60
13123;DHT22;6627;50.920;12.050;2023-06-26T13:29:36;31.10;91.90
13123;DHT22;6627;50.920;12.050;2023-06-26T13:32:04;30.50;94.30
13123;DHT22;6627;50.920;12.050;2023-06-26T13:34:32;30.50;95.10
13123;DHT22;6627;50.920;12.050;2023-06-26T13:36:59;30.60;92.20
13123;DHT22;6627;50.920;12.050;2023-06-26T13:39:28;30.40;96.20
13123;DHT22;6627;50.920;12.050;2023-06-26T13:41:55;30.70;92.50
13123;DHT22;6627;50.920;12.050;2023-06-26T13:44:22;31.00;95.20
13123;DHT22;6627;50.920;12.050;2023-06-26T13:46:50;31.30;92.20
13123;DHT22;6627;50.920;12.050;2023-06-26T13:49:18;31.60;90.70
13123;DHT22;6627;50.920;12.050;2023-06-26T13:51:45;31.70;88.90
13123;DHT22;6627;50.920;12.050;2023-06-26T13:54:14;31.30;90.90
13123;DHT22;6627;50.920;12.050;2023-06-26T13:56:44;31.20;85.30
13123;DHT22;6627;50.920;12.050;2023-06-26T13:59:11;30.90;92.80
13123;DHT22;6627;50.920;12.050;2023-06-26T14:01:39;30.60;89.30
13123;DHT22;6627;50.920;12.050;2023-06-26T14:04:08;30.60;92.60
13123;DHT22;6627;50.920;12.050;2023-06-26T14:06:36;30.40;90.40
13123;DHT22;6627;50.920;12.050;2023-06-26T14:09:06;30.40;90.90
13123;DHT22;6627;50.920;12.050;2023-06-26T14:11:34;30.50;90.40
13123;DHT22;6627;50.920;12.050;2023-06-26T14:14:03;30.40;90.50
13123;DHT22;6627;50.920;12.050;2023-06-26T14:16:30;30.30;90.00
13123;DHT22;6627;50.920;12.050;2023-06-26T14:18:58;30.00;94.10
13123;DHT22;6627;50.920;12.050;2023-06-26T14:23:54;27.30;99.90
13123;DHT22;6627;50.920;12.050;2023-06-26T14:26:21;26.10;99.90
13123;DHT22;6627;50.920;12.050;2023-06-26T14:28:48;24.30;99.90
13123;DHT22;6627;50.920;12.050;2023-06-26T14:31:17;23.20;99.90
13123;DHT22;6627;50.920;12.050;2023-06-26T14:33:44;22.80;99.90
13123;DHT22;6627;50.920;12.050;2023-06-26T14:36:12;23.00;99.90
13123;DHT22;6627;50.920;12.050;2023-06-26T14:38:40;22.90;99.90
13123;DHT22;6627;50.920;12.050;2023-06-26T14:41:08;23.10;99.90
13123;DHT22;6627;50.920;12.050;2023-06-26T14:46:03;22.90;99.90
13123;DHT22;6627;50.920;12.050;2023-06-26T14:48:32;22.80;99.90
13123;DHT22;6627;50.920;12.050;2023-06-26T14:51:00;22.70;99.90
13123;DHT22;6627;50.920;12.050;2023-06-26T14:53:27;22.90;99.90
13123;DHT22;6627;50.920;12.050;2023-06-26T14:55:55;23.10;99.90
13123;DHT22;6627;50.920;12.050;2023-06-26T14:58:23;23.30;99.90
13123;DHT22;6627;50.920;12.050;2023-06-26T15:00:50;23.60;99.90
13123;DHT22;6627;50.920;12.050;2023-06-26T15:03:19;23.90;99.90
13123;DHT22;6627;50.920;12.050;2023-06-26T15:05:49;24.20;99.90
13123;DHT22;6627;50.920;12.050;2023-06-26T15:08:16;24.60;99.90
13123;DHT22;6627;50.920;12.050;2023-06-26T15:10:44;25.20;99.90
13123;DHT22;6627;50.920;12.050;2023-06-26T15:13:11;25.40;99.90
13123;DHT22;6627;50.920;12.050;2023-06-26T15:15:38;25.70;99.90
13123;DHT22;6627;50.920;12.050;2023-06-26T15:18:05;25.70;99.90
13123;DHT22;6627;50.920;12.050;2023-06-26T15:20:32;25.50;99.90
13123;DHT22;6627;50.920;12.050;2023-06-26T15:23:01;25.20;99.90
13123;DHT22;6627;50.920;12.050;2023-06-26T15:25:28;24.80;99.90
13123;DHT22;6627;50.920;12.050;2023-06-26T15:27:58;24.90;99.90
13123;DHT22;6627;50.920;12.050;2023-06-26T15:30:25;25.00;99.90
13123;DHT22;6627;50.920;12.050;2023-06-26T15:32:52;24.80;99.90
13123;DHT22;6627;50.920;12.050;2023-06-26T15:35:19;24.80;99.90
13123;DHT22;6627;50.920;12.050;2023-06-26T15:37:46;24.50;99.90
13123;DHT22;6627;50.920;12.050;2023-06-26T15:40:17;24.70;99.90
13123;DHT22;6627;50.920;12.050;2023-06-26T15:42:46;24.60;99.90
13123;DHT22;6627;50.920;12.050;2023-06-26T15:45:13;24.20;99.90
13123;DHT22;6627;50.920;12.050;2023-06-26T15:47:44;23.70;99.90
13123;DHT22;6627;50.920;12.050;2023-06-26T15:52:41;22.90;99.90
13123;DHT22;6627;50.920;12.050;2023-06-26T15:55:08;23.40;99.90
13123;DHT22;6627;50.920;12.050;2023-06-26T15:57:56;23.20;99.90
13123;DHT22;6627;50.920;12.050;2023-06-26T16:00:26;22.80;99.90
13123;DHT22;6627;50.920;12.050;2023-06-26T16:02:53;22.80;99.90
13123;DHT22;6627;50.920;12.050;2023-06-26T16:05:20;23.10;99.90
13123;DHT22;6627;50.920;12.050;2023-06-26T16:07:49;22.90;99.90
13123;DHT22;6627;50.920;12.050;2023-06-26T16:10:16;23.10;99.90
13123;DHT22;6627;50.920;12.050;2023-06-26T16:12:48;22.90;99.90
13123;DHT22;6627;50.920;12.050;2023-06-26T16:15:16;22.90;99.90
13123;DHT22;6627;50.920;12.050;2023-06-26T16:17:43;22.80;99.90
13123;DHT22;6627;50.920;12.050;2023-06-26T16:20:11;22.60;99.90
13123;DHT22;6627;50.920;12.050;2023-06-26T16:22:38;22.40;99.90
13123;DHT22;6627;50.920;12.050;2023-06-26T16:25:07;22.80;99.90
13123;DHT22;6627;50.920;12.050;2023-06-26T16:27:35;23.20;99.90
13123;DHT22;6627;50.920;12.050;2023-06-26T16:30:03;23.10;99.90
13123;DHT22;6627;50.920;12.050;2023-06-26T16:32:32;23.00;99.90
13123;DHT22;6627;50.920;12.050;2023-06-26T16:34:59;22.70;99.90
13123;DHT22;6627;50.920;12.050;2023-06-26T16:37:28;22.90;99.90
13123;DHT22;6627;50.920;12.050;2023-06-26T16:39:55;22.80;99.90
13123;DHT22;6627;50.920;12.050;2023-06-26T16:42:22;22.90;99.90
13123;DHT22;6627;50.920;12.050;2023-06-26T16:44:50;23.00;99.90
13123;DHT22;6627;50.920;12.050;2023-06-26T16:47:38;23.30;99.90
13123;DHT22;6627;50.920;12.050;2023-06-26T16:50:07;23.70;99.90
13123;DHT22;6627;50.920;12.050;2023-06-26T16:52:35;23.80;99.90
13123;DHT22;6627;50.920;12.050;2023-06-26T16:55:03;23.70;99.90
13123;DHT22;6627;50.920;12.050;2023-06-26T16:57:31;23.40;99.90
13123;DHT22;6627;50.920;12.050;2023-06-26T16:59:58;23.30;99.90
13123;DHT22;6627;50.920;12.050;2023-06-26T17:02:25;23.40;99.90
13123;DHT22;6627;50.920;12.050;2023-06-26T17:04:55;23.20;99.90
13123;DHT22;6627;50.920;12.050;2023-06-26T17:09:51;23.20;99.90
13123;DHT22;6627;50.920;12.050;2023-06-26T17:12:19;23.20;99.90
13123;DHT22;6627;50.920;12.050;2023-06-26T17:14:46;23.20;99.90
13123;DHT22;6627;50.920;12.050;2023-06-26T17:17:14;23.30;99.90
13123;DHT22;6627;50.920;12.050;2023-06-26T17:19:45;23.30;99.90
13123;DHT22;6627;50.920;12.050;2023-06-26T17:22:13;23.40;99.90
13123;DHT22;6627;50.920;12.050;2023-06-26T17:24:41;23.30;99.90
13123;DHT22;6627;50.920;12.050;2023-06-26T17:27:09;23.40;99.90
13123;DHT22;6627;50.920;12.050;2023-06-26T17:29:37;23.40;99.90
13123;DHT22;6627;50.920;12.050;2023-06-26T17:32:07;23.40;99.90
13123;DHT22;6627;50.920;12.050;2023-06-26T17:34:36;23.40;99.90
13123;DHT22;6627;50.920;12.050;2023-06-26T17:37:04;23.40;99.90
13123;DHT22;6627;50.920;12.050;2023-06-26T17:39:34;23.40;99.90
13123;DHT22;6627;50.920;12.050;2023-06-26T17:42:02;23.30;99.90
13123;DHT22;6627;50.920;12.050;2023-06-26T17:44:31;23.30;99.90
13123;DHT22;6627;50.920;12.050;2023-06-26T17:46:59;23.20;99.90
13123;DHT22;6627;50.920;12.050;2023-06-26T17:49:26;23.20;99.90
13123;DHT22;6627;50.920;12.050;2023-06-26T17:54:21;23.00;99.90
13123;DHT22;6627;50.920;12.050;2023-06-26T17:56:50;23.10;99.90
13123;DHT22;6627;50.920;12.050;2023-06-26T17:59:18;22.90;99.90
13123;DHT22;6627;50.920;12.050;2023-06-26T18:01:45;23.00;99.90
13123;DHT22;6627;50.920;12.050;2023-06-26T18:04:13;22.90;99.90
13123;DHT22;6627;50.920;12.050;2023-06-26T18:06:41;22.90;99.90
13123;DHT22;6627;50.920;12.050;2023-06-26T18:09:09;23.00;99.90
13123;DHT22;6627;50.920;12.050;2023-06-26T18:11:36;22.80;99.90
13123;DHT22;6627;50.920;12.050;2023-06-26T18:14:05;22.70;99.90
13123;DHT22;6627;50.920;12.050;2023-06-26T18:16:33;22.70;99.90
13123;DHT22;6627;50.920;12.050;2023-06-26T18:19:00;24.00;99.90
13123;DHT22;6627;50.920;12.050;2023-06-26T18:21:28;22.40;99.90
13123;DHT22;6627;50.920;12.050;2023-06-26T18:23:55;22.40;99.90
13123;DHT22;6627;50.920;12.050;2023-06-26T18:26:23;22.30;99.90
13123;DHT22;6627;50.920;12.050;2023-06-26T18:28:50;22.30;99.90
13123;DHT22;6627;50.920;12.050;2023-06-26T18:31:20;22.20;99.90
13123;DHT22;6627;50.920;12.050;2023-06-26T18:33:48;22.10;99.90
13123;DHT22;6627;50.920;12.050;2023-06-26T18:36:15;22.00;99.90
13123;DHT22;6627;50.920;12.050;2023-06-26T18:38:44;21.80;99.90
13123;DHT22;6627;50.920;12.050;2023-06-26T18:41:12;21.80;99.90
13123;DHT22;6627;50.920;12.050;2023-06-26T18:43:40;21.70;99.90
13123;DHT22;6627;50.920;12.050;2023-06-26T18:46:14;21.50;99.90
13123;DHT22;6627;50.920;12.050;2023-06-26T18:48:45;21.40;99.90
13123;DHT22;6627;50.920;12.050;2023-06-26T18:51:13;21.30;99.90
13123;DHT22;6627;50.920;12.050;2023-06-26T18:53:40;21.50;99.90
13123;DHT22;6627;50.920;12.050;2023-06-26T18:56:09;21.60;99.90
13123;DHT22;6627;50.920;12.050;2023-06-26T18:58:37;21.40;99.90
13123;DHT22;6627;50.920;12.050;2023-06-26T19:01:04;21.40;99.90
13123;DHT22;6627;50.920;12.050;2023-06-26T19:03:32;21.30;99.90
13123;DHT22;6627;50.920;12.050;2023-06-26T19:06:00;21.10;99.90
13123;DHT22;6627;50.920;12.050;2023-06-26T19:08:28;21.10;99.90
13123;DHT22;6627;50.920;12.050;2023-06-26T19:10:55;20.90;99.90
13123;DHT22;6627;50.920;12.050;2023-06-26T19:13:23;20.90;99.90
13123;DHT22;6627;50.920;12.050;2023-06-26T19:15:53;20.80;99.90
13123;DHT22;6627;50.920;12.050;2023-06-26T19:18:21;20.70;99.90
13123;DHT22;6627;50.920;12.050;2023-06-26T19:20:48;20.60;99.90
13123;DHT22;6627;50.920;12.050;2023-06-26T19:23:16;20.50;99.90
13123;DHT22;6627;50.920;12.050;2023-06-26T19:25:44;20.40;99.90
13123;DHT22;6627;50.920;12.050;2023-06-26T19:28:12;20.30;99.90
13123;DHT22;6627;50.920;12.050;2023-06-26T19:30:39;20.20;99.90
13123;DHT22;6627;50.920;12.050;2023-06-26T19:33:07;20.10;99.90
13123;DHT22;6627;50.920;12.050;2023-06-26T19:35:39;20.00;99.90
13123;DHT22;6627;50.920;12.050;2023-06-26T19:38:06;20.00;99.90
13123;DHT22;6627;50.920;12.050;2023-06-26T19:40:36;20.00;99.90
13123;DHT22;6627;50.920;12.050;2023-06-26T19:43:04;20.00;99.90
13123;DHT22;6627;50.920;12.050;2023-06-26T19:45:32;20.00;99.90
13123;DHT22;6627;50.920;12.050;2023-06-26T19:47:59;20.00;99.90
13123;DHT22;6627;50.920;12.050;2023-06-26T19:50:26;20.00;99.90
13123;DHT22;6627;50.920;12.050;2023-06-26T19:52:54;20.00;99.90
13123;DHT22;6627;50.920;12.050;2023-06-26T19:55:21;20.20;99.90
13123;DHT22;6627;50.920;12.050;2023-06-26T19:57:55;20.30;99.90
13123;DHT22;6627;50.920;12.050;2023-06-26T20:00:23;20.40;99.90
13123;DHT22;6627;50.920;12.050;2023-06-26T20:02:50;20.50;99.90
13123;DHT22;6627;50.920;12.050;2023-06-26T20:05:18;20.50;99.90
13123;DHT22;6627;50.920;12.050;2023-06-26T20:07:46;20.60;99.90
13123;DHT22;6627;50.920;12.050;2023-06-26T20:10:13;20.60;99.90
13123;DHT22;6627;50.920;12.050;2023-06-26T20:12:41;20.50;99.90
13123;DHT22;6627;50.920;12.050;2023-06-26T20:15:11;20.80;99.90
13123;DHT22;6627;50.920;12.050;2023-06-26T20:17:38;20.70;99.90
13123;DHT22;6627;50.920;12.050;2023-06-26T20:20:06;20.70;99.90
13123;DHT22;6627;50.920;12.050;2023-06-26T20:22:39;20.70;99.90
13123;DHT22;6627;50.920;12.050;2023-06-26T20:25:06;20.70;99.90
13123;DHT22;6627;50.920;12.050;2023-06-26T20:27:34;20.70;99.90
13123;DHT22;6627;50.920;12.050;2023-06-26T20:30:01;20.70;99.90
13123;DHT22;6627;50.920;12.050;2023-06-26T20:32:30;20.80;99.90
13123;DHT22;6627;50.920;12.050;2023-06-26T20:34:57;20.80;99.90
13123;DHT22;6627;50.920;12.050;2023-06-26T20:37:24;20.80;99.90
13123;DHT22;6627;50.920;12.050;2023-06-26T20:39:52;20.70;99.90
13123;DHT22;6627;50.920;12.050;2023-06-26T20:44:48;20.80;99.90
13123;DHT22;6627;50.920;12.050;2023-06-26T20:47:17;20.70;99.90
13123;DHT22;6627;50.920;12.050;2023-06-26T20:49:47;20.60;99.90
13123;DHT22;6627;50.920;12.050;2023-06-26T20:52:16;20.60;99.90
13123;DHT22;6627;50.920;12.050;2023-06-26T20:55:05;20.50;99.90
13123;DHT22;6627;50.920;12.050;2023-06-26T20:57:35;20.60;99.90
13123;DHT22;6627;50.920;12.050;2023-06-26T21:00:02;20.60;99.90
13123;DHT22;6627;50.920;12.050;2023-06-26T21:02:31;20.60;99.90
13123;DHT22;6627;50.920;12.050;2023-06-26T21:05:01;20.50;99.90
13123;DHT22;6627;50.920;12.050;2023-06-26T21:07:29;20.40;99.90
13123;DHT22;6627;50.920;12.050;2023-06-26T21:09:57;20.40;99.90
13123;DHT22;6627;50.920;12.050;2023-06-26T21:12:27;20.40;99.90
13123;DHT22;6627;50.920;12.050;2023-06-26T21:14:54;20.40;99.90
13123;DHT22;6627;50.920;12.050;2023-06-26T21:17:25;20.30;99.90
13123;DHT22;6627;50.920;12.050;2023-06-26T21:19:52;20.30;99.90
13123;DHT22;6627;50.920;12.050;2023-06-26T21:22:22;20.30;99.90
13123;DHT22;6627;50.920;12.050;2023-06-26T21:24:50;20.30;99.90
13123;DHT22;6627;50.920;12.050;2023-06-26T21:27:17;20.30;99.90
13123;DHT22;6627;50.920;12.050;2023-06-26T21:29:45;20.20;99.90
13123;DHT22;6627;50.920;12.050;2023-06-26T21:32:12;20.20;99.90
13123;DHT22;6627;50.920;12.050;2023-06-26T21:34:40;20.20;99.90
13123;DHT22;6627;50.920;12.050;2023-06-26T21:37:07;20.20;99.90
13123;DHT22;6627;50.920;12.050;2023-06-26T21:39:36;20.30;99.90
13123;DHT22;6627;50.920;12.050;2023-06-26T21:42:04;20.40;99.90
13123;DHT22;6627;50.920;12.050;2023-06-26T21:44:33;20.30;99.90
13123;DHT22;6627;50.920;12.050;2023-06-26T21:47:01;20.30;99.90
13123;DHT22;6627;50.920;12.050;2023-06-26T21:49:32;20.30;99.90
13123;DHT22;6627;50.920;12.050;2023-06-26T21:52:00;20.30;99.90
13123;DHT22;6627;50.920;12.050;2023-06-26T21:54:28;20.20;99.90
13123;DHT22;6627;50.920;12.050;2023-06-26T21:56:57;20.20;99.90
13123;DHT22;6627;50.920;12.050;2023-06-26T21:59:24;20.00;99.90
13123;DHT22;6627;50.920;12.050;2023-06-26T22:01:52;20.00;99.90
13123;DHT22;6627;50.920;12.050;2023-06-26T22:04:20;20.00;99.90
13123;DHT22;6627;50.920;12.050;2023-06-26T22:06:52;20.00;99.90
13123;DHT22;6627;50.920;12.050;2023-06-26T22:09:19;19.80;99.90
13123;DHT22;6627;50.920;12.050;2023-06-26T22:11:47;19.70;99.90
13123;DHT22;6627;50.920;12.050;2023-06-26T22:14:15;19.70;99.90
13123;DHT22;6627;50.920;12.050;2023-06-26T22:16:44;19.60;99.90
13123;DHT22;6627;50.920;12.050;2023-06-26T22:19:15;19.50;99.90
13123;DHT22;6627;50.920;12.050;2023-06-26T22:21:43;19.50;99.90
13123;DHT22;6627;50.920;12.050;2023-06-26T22:24:10;19.50;99.90
13123;DHT22;6627;50.920;12.050;2023-06-26T22:26:37;19.50;99.90
13123;DHT22;6627;50.920;12.050;2023-06-26T22:29:06;19.40;99.90
13123;DHT22;6627;50.920;12.050;2023-06-26T22:31:35;19.40;99.90
13123;DHT22;6627;50.920;12.050;2023-06-26T22:34:02;19.40;99.90
13123;DHT22;6627;50.920;12.050;2023-06-26T22:36:29;19.50;99.90
13123;DHT22;6627;50.920;12.050;2023-06-26T22:38:57;19.50;99.90
13123;DHT22;6627;50.920;12.050;2023-06-26T22:41:24;19.50;99.90
13123;DHT22;6627;50.920;12.050;2023-06-26T22:43:52;19.50;99.90
13123;DHT22;6627;50.920;12.050;2023-06-26T22:46:19;19.50;99.90
13123;DHT22;6627;50.920;12.050;2023-06-26T22:48:48;19.40;99.90
13123;DHT22;6627;50.920;12.050;2023-06-26T22:51:16;19.30;99.90
13123;DHT22;6627;50.920;12.050;2023-06-26T22:53:43;19.20;99.90
13123;DHT22;6627;50.920;12.050;2023-06-26T22:56:10;19.20;99.90
13123;DHT22;6627;50.920;12.050;2023-06-26T22:58:38;19.20;99.90
13123;DHT22;6627;50.920;12.050;2023-06-26T23:01:05;19.20;99.90
13123;DHT22;6627;50.920;12.050;2023-06-26T23:03:39;19.10;99.90
13123;DHT22;6627;50.920;12.050;2023-06-26T23:06:08;19.00;99.90
13123;DHT22;6627;50.920;12.050;2023-06-26T23:08:36;19.10;99.90
13123;DHT22;6627;50.920;12.050;2023-06-26T23:11:04;19.00;99.90
13123;DHT22;6627;50.920;12.050;2023-06-26T23:13:31;18.90;99.90
13123;DHT22;6627;50.920;12.050;2023-06-26T23:15:58;18.80;99.90
13123;DHT22;6627;50.920;12.050;2023-06-26T23:18:28;18.70;99.90
13123;DHT22;6627;50.920;12.050;2023-06-26T23:20:57;18.60;99.90
13123;DHT22;6627;50.920;12.050;2023-06-26T23:23:27;18.60;99.90
13123;DHT22;6627;50.920;12.050;2023-06-26T23:25:56;18.60;99.90
13123;DHT22;6627;50.920;12.050;2023-06-26T23:28:23;18.60;99.90
13123;DHT22;6627;50.920;12.050;2023-06-26T23:30:50;18.60;99.90
13123;DHT22;6627;50.920;12.050;2023-06-26T23:33:18;18.60;99.90
13123;DHT22;6627;50.920;12.050;2023-06-26T23:35:45;18.60;99.90
13123;DHT22;6627;50.920;12.050;2023-06-26T23:38:13;18.60;99.90
13123;DHT22;6627;50.920;12.050;2023-06-26T23:40:41;18.60;99.90
13123;DHT22;6627;50.920;12.050;2023-06-26T23:43:08;18.60;99.90
13123;DHT22;6627;50.920;12.050;2023-06-26T23:45:37;18.70;99.90
13123;DHT22;6627;50.920;12.050;2023-06-26T23:48:05;18.70;99.90
13123;DHT22;6627;50.920;12.050;2023-06-26T23:50:32;18.70;99.90
13123;DHT22;6627;50.920;12.050;2023-06-26T23:53:00;18.70;99.90
13123;DHT22;6627;50.920;12.050;2023-06-26T23:55:27;18.60;99.90
13123;DHT22;6627;50.920;12.050;2023-06-26T23:57:56;18.70;99.90
